createdAt,value
2019-04-01T00:00:11.899Z,39.69
2019-04-01T00:01:11.827Z,39.68
2019-04-01T00:02:11.910Z,39.65
2019-04-01T00:03:11.966Z,39.69
2019-04-01T00:04:11.845Z,39.7
2019-04-01T00:05:11.936Z,39.67
2019-04-01T00:06:11.879Z,39.63
2019-04-01T00:07:11.919Z,39.66
2019-04-01T00:08:11.690Z,39.67
2019-04-01T00:09:11.683Z,39.68
2019-04-01T00:10:11.842Z,39.66
2019-04-01T00:11:11.932Z,39.66
2019-04-01T00:12:11.743Z,39.65
2019-04-01T00:13:11.781Z,39.65
2019-04-01T00:14:11.724Z,39.68
2019-04-01T00:15:11.747Z,39.68
2019-04-01T00:16:11.831Z,39.67
2019-04-01T00:17:11.800Z,39.62
2019-04-01T00:18:11.771Z,39.65
2019-04-01T00:19:11.908Z,39.67
2019-04-01T00:20:12.155Z,39.68
2019-04-01T00:21:11.908Z,39.65
2019-04-01T00:22:11.841Z,39.67
2019-04-01T00:23:12.128Z,39.69
2019-04-01T00:24:11.876Z,39.66
2019-04-01T00:25:12.040Z,39.66
2019-04-01T00:26:11.740Z,39.66
2019-04-01T00:27:11.702Z,39.65
2019-04-01T00:28:11.803Z,39.65
2019-04-01T00:29:11.776Z,39.65
2019-04-01T00:30:11.739Z,39.68
2019-04-01T00:31:11.751Z,39.69
2019-04-01T00:32:11.772Z,39.68
2019-04-01T00:33:11.823Z,39.67
2019-04-01T00:34:11.798Z,39.68
2019-04-01T00:35:11.776Z,39.68
2019-04-01T00:36:11.895Z,39.63
2019-04-01T00:37:11.811Z,39.71
2019-04-01T00:38:11.933Z,39.66
2019-04-01T00:39:11.871Z,39.68
2019-04-01T00:40:11.852Z,39.67
2019-04-01T00:41:11.920Z,39.72
2019-04-01T00:42:11.958Z,39.71
2019-04-01T00:43:11.894Z,39.71
2019-04-01T00:44:11.906Z,39.7
2019-04-01T00:45:11.773Z,39.71
2019-04-01T00:46:11.646Z,39.68
2019-04-01T00:47:11.689Z,39.7
2019-04-01T00:48:11.708Z,39.7
2019-04-01T00:49:11.724Z,39.69
2019-04-01T00:50:11.876Z,39.71
2019-04-01T00:51:11.805Z,39.68
2019-04-01T00:52:11.752Z,39.7
2019-04-01T00:53:11.750Z,39.71
2019-04-01T00:54:12.138Z,39.68
2019-04-01T00:55:12.023Z,39.71
2019-04-01T00:56:11.780Z,39.72
2019-04-01T00:57:11.845Z,39.72
2019-04-01T00:58:11.799Z,39.71
2019-04-01T00:59:11.820Z,39.68
2019-04-01T01:00:12.020Z,39.72
2019-04-01T01:01:11.951Z,39.73
2019-04-01T01:02:11.888Z,39.71
2019-04-01T01:03:11.658Z,39.69
2019-04-01T01:04:11.743Z,39.69
2019-04-01T01:05:11.691Z,39.67
2019-04-01T01:06:11.837Z,39.67
2019-04-01T01:07:11.731Z,39.69
2019-04-01T01:08:11.862Z,39.7
2019-04-01T01:09:11.792Z,39.71
2019-04-01T01:10:11.865Z,39.7
2019-04-01T01:11:11.782Z,39.71
2019-04-01T01:12:11.925Z,39.73
2019-04-01T01:13:11.838Z,39.75
2019-04-01T01:14:11.838Z,39.71
2019-04-01T01:15:12.204Z,39.71
2019-04-01T01:16:11.843Z,39.73
2019-04-01T01:17:11.878Z,39.73
2019-04-01T01:18:11.992Z,39.72
2019-04-01T01:19:11.878Z,39.74
2019-04-01T01:20:12.005Z,39.73
2019-04-01T01:21:11.715Z,39.74
2019-04-01T01:22:11.767Z,39.73
2019-04-01T01:23:11.724Z,39.74
2019-04-01T01:24:11.661Z,39.72
2019-04-01T01:25:11.676Z,39.72
2019-04-01T01:26:11.747Z,39.73
2019-04-01T01:27:11.886Z,39.72
2019-04-01T01:28:11.703Z,39.73
2019-04-01T01:29:11.907Z,39.74
2019-04-01T01:30:12.890Z,39.71
2019-04-01T01:31:11.915Z,39.75
2019-04-01T01:32:11.778Z,39.73
2019-04-01T01:33:11.912Z,39.78
2019-04-01T01:34:11.821Z,39.77
2019-04-01T01:35:11.831Z,39.76
2019-04-01T01:36:12.320Z,39.77
2019-04-01T01:37:11.948Z,39.75
2019-04-01T01:38:11.847Z,39.73
2019-04-01T01:39:11.644Z,39.74
2019-04-01T01:40:11.806Z,39.7
2019-04-01T01:41:11.693Z,39.76
2019-04-01T01:42:11.776Z,39.74
2019-04-01T01:43:11.776Z,39.74
2019-04-01T01:44:11.626Z,39.76
2019-04-01T01:45:11.796Z,39.71
2019-04-01T01:46:11.755Z,39.71
2019-04-01T01:47:11.774Z,39.7
2019-04-01T01:48:11.812Z,39.77
2019-04-01T01:49:11.787Z,39.77
2019-04-01T01:50:11.810Z,39.76
2019-04-01T01:51:11.861Z,39.73
2019-04-01T01:52:11.939Z,39.75
2019-04-01T01:53:11.879Z,39.77
2019-04-01T01:54:11.955Z,39.76
2019-04-01T01:55:11.881Z,39.75
2019-04-01T01:56:11.898Z,39.75
2019-04-01T01:57:11.804Z,39.75
2019-04-01T01:58:11.817Z,39.72
2019-04-01T01:59:11.816Z,39.75
2019-04-01T02:00:11.631Z,39.74
2019-04-01T02:01:11.688Z,39.75
2019-04-01T02:02:11.684Z,39.76
2019-04-01T02:03:11.809Z,39.75
2019-04-01T02:04:11.723Z,39.77
2019-04-01T02:05:11.865Z,39.78
2019-04-01T02:06:12.863Z,39.79
2019-04-01T02:07:11.768Z,39.73
2019-04-01T02:08:11.763Z,39.74
2019-04-01T02:09:11.843Z,39.76
2019-04-01T02:10:11.793Z,39.77
2019-04-01T02:11:11.770Z,39.74
2019-04-01T02:12:11.868Z,39.77
2019-04-01T02:13:12.042Z,39.79
2019-04-01T02:14:11.873Z,39.74
2019-04-01T02:15:11.663Z,39.78
2019-04-01T02:16:11.663Z,39.77
2019-04-01T02:17:11.803Z,39.76
2019-04-01T02:18:11.679Z,39.78
2019-04-01T02:19:11.730Z,39.76
2019-04-01T02:20:11.715Z,39.78
2019-04-01T02:21:11.741Z,39.77
2019-04-01T02:22:11.920Z,39.79
2019-04-01T02:23:11.762Z,39.75
2019-04-01T02:24:11.793Z,39.75
2019-04-01T02:25:11.822Z,39.76
2019-04-01T02:26:11.799Z,39.77
2019-04-01T02:27:11.959Z,39.74
2019-04-01T02:28:11.922Z,39.77
2019-04-01T02:29:11.987Z,39.74
2019-04-01T02:30:11.868Z,39.75
2019-04-01T02:31:11.872Z,39.71
2019-04-01T02:32:11.652Z,39.76
2019-04-01T02:33:11.606Z,39.74
2019-04-01T02:34:11.669Z,39.75
2019-04-01T02:35:11.638Z,39.74
2019-04-01T02:36:11.680Z,39.75
2019-04-01T02:37:11.826Z,39.76
2019-04-01T02:38:11.778Z,39.77
2019-04-01T02:39:11.746Z,39.75
2019-04-01T02:40:11.754Z,39.77
2019-04-01T02:41:12.243Z,39.79
2019-04-01T02:42:12.098Z,39.76
2019-04-01T02:43:11.934Z,39.73
2019-04-01T02:44:11.929Z,39.72
2019-04-01T02:45:11.895Z,39.77
2019-04-01T02:46:11.827Z,39.77
2019-04-01T02:47:11.815Z,39.79
2019-04-01T02:48:11.838Z,39.77
2019-04-01T02:49:11.946Z,39.75
2019-04-01T02:50:11.701Z,39.78
2019-04-01T02:51:11.672Z,39.79
2019-04-01T02:52:11.719Z,39.75
2019-04-01T02:53:11.836Z,39.78
2019-04-01T02:54:11.697Z,39.77
2019-04-01T02:55:11.760Z,39.7
2019-04-01T02:56:11.731Z,39.79
2019-04-01T02:57:11.758Z,39.74
2019-04-01T02:58:11.824Z,39.79
2019-04-01T02:59:11.752Z,39.73
2019-04-01T03:00:11.774Z,39.76
2019-04-01T03:01:11.896Z,39.76
2019-04-01T03:02:11.801Z,39.79
2019-04-01T03:03:11.842Z,39.77
2019-04-01T03:04:11.942Z,39.75
2019-04-01T03:05:11.847Z,39.77
2019-04-01T03:06:11.883Z,39.77
2019-04-01T03:07:11.891Z,39.76
2019-04-01T03:08:11.620Z,39.79
2019-04-01T03:09:11.646Z,39.77
2019-04-01T03:10:11.620Z,39.74
2019-04-01T03:11:11.704Z,39.78
2019-04-01T03:12:11.688Z,39.79
2019-04-01T03:13:11.867Z,39.76
2019-04-01T03:14:11.672Z,39.75
2019-04-01T03:15:11.687Z,39.73
2019-04-01T03:16:11.732Z,39.79
2019-04-01T03:17:11.924Z,39.75
2019-04-01T03:18:11.742Z,39.71
2019-04-01T03:19:11.763Z,39.76
2019-04-01T03:20:11.765Z,39.76
2019-04-01T03:21:11.793Z,39.75
2019-04-01T03:22:11.810Z,39.79
2019-04-01T03:23:11.784Z,39.78
2019-04-01T03:24:12.096Z,39.74
2019-04-01T03:25:11.691Z,39.72
2019-04-01T03:26:11.759Z,39.74
2019-04-01T03:27:11.656Z,39.75
2019-04-01T03:28:11.666Z,39.73
2019-04-01T03:29:11.661Z,39.74
2019-04-01T03:30:11.745Z,39.73
2019-04-01T03:31:11.775Z,39.72
2019-04-01T03:32:11.748Z,39.76
2019-04-01T03:33:11.789Z,39.73
2019-04-01T03:34:11.889Z,39.75
2019-04-01T03:35:11.928Z,39.72
2019-04-01T03:36:11.794Z,39.73
2019-04-01T03:37:11.887Z,39.74
2019-04-01T03:38:11.823Z,39.72
2019-04-01T03:39:11.805Z,39.72
2019-04-01T03:40:11.859Z,39.69
2019-04-01T03:41:11.865Z,39.73
2019-04-01T03:42:11.756Z,39.72
2019-04-01T03:43:11.607Z,39.69
2019-04-01T03:44:11.608Z,39.71
2019-04-01T03:45:11.662Z,39.67
2019-04-01T03:46:12.094Z,39.67
2019-04-01T03:47:12.043Z,39.66
2019-04-01T03:48:11.717Z,39.66
2019-04-01T03:49:11.718Z,39.66
2019-04-01T03:50:11.703Z,39.68
2019-04-01T03:51:11.723Z,39.65
2019-04-01T03:52:11.744Z,39.65
2019-04-01T03:53:11.812Z,39.65
2019-04-01T03:54:11.937Z,39.66
2019-04-01T03:55:11.844Z,39.6
2019-04-01T03:56:11.815Z,39.63
2019-04-01T03:57:11.787Z,39.61
2019-04-01T03:58:11.809Z,39.61
2019-04-01T03:59:11.676Z,39.62
2019-04-01T04:00:11.680Z,39.58
2019-04-01T04:01:11.643Z,39.6
2019-04-01T04:02:11.763Z,39.59
2019-04-01T04:03:11.683Z,39.51
2019-04-01T04:04:11.774Z,39.5
2019-04-01T04:05:11.707Z,39.53
2019-04-01T04:06:11.728Z,39.58
2019-04-01T04:07:11.979Z,39.61
2019-04-01T04:08:12.107Z,39.56
2019-04-01T04:09:11.836Z,39.63
2019-04-01T04:10:11.746Z,39.61
2019-04-01T04:11:12.009Z,39.58
2019-04-01T04:12:11.956Z,39.63
2019-04-01T04:13:12.015Z,39.64
2019-04-01T04:14:12.026Z,39.58
2019-04-01T04:15:11.688Z,39.64
2019-04-01T04:16:11.578Z,39.61
2019-04-01T04:17:11.628Z,39.61
2019-04-01T04:18:11.620Z,39.63
2019-04-01T04:19:11.608Z,39.65
2019-04-01T04:20:11.642Z,39.63
2019-04-01T04:21:11.713Z,39.66
2019-04-01T04:22:11.869Z,39.65
2019-04-01T04:23:11.663Z,39.65
2019-04-01T04:24:11.587Z,39.62
2019-04-01T04:25:11.689Z,39.65
2019-04-01T04:26:11.823Z,39.65
2019-04-01T04:27:11.789Z,39.62
2019-04-01T04:28:11.737Z,39.61
2019-04-01T04:29:11.748Z,39.66
2019-04-01T04:30:11.782Z,39.59
2019-04-01T04:31:11.772Z,39.64
2019-04-01T04:32:11.826Z,39.67
2019-04-01T04:33:11.788Z,39.63
2019-04-01T04:34:11.611Z,39.64
2019-04-01T04:35:11.643Z,39.58
2019-04-01T04:36:11.614Z,39.63
2019-04-01T04:37:11.651Z,39.64
2019-04-01T04:38:11.677Z,39.63
2019-04-01T04:39:11.648Z,39.59
2019-04-01T04:40:11.689Z,39.6
2019-04-01T04:41:11.713Z,39.61
2019-04-01T04:42:11.687Z,39.59
2019-04-01T04:43:11.738Z,39.61
2019-04-01T04:44:11.872Z,39.61
2019-04-01T04:45:11.744Z,39.61
2019-04-01T04:46:11.879Z,39.59
2019-04-01T04:47:11.795Z,39.57
2019-04-01T04:48:11.871Z,39.61
2019-04-01T04:49:11.802Z,39.56
2019-04-01T04:50:11.837Z,39.58
2019-04-01T04:51:11.899Z,39.54
2019-04-01T04:52:11.721Z,39.59
2019-04-01T04:53:11.728Z,39.55
2019-04-01T04:54:11.666Z,39.57
2019-04-01T04:55:11.708Z,39.54
2019-04-01T04:56:11.607Z,39.58
2019-04-01T04:57:11.644Z,39.54
2019-04-01T04:58:11.743Z,39.51
2019-04-01T04:59:11.648Z,39.55
2019-04-01T05:00:11.692Z,39.54
2019-04-01T05:01:11.759Z,39.51
2019-04-01T05:02:11.613Z,39.55
2019-04-01T05:03:11.759Z,39.51
2019-04-01T05:04:11.719Z,39.5
2019-04-01T05:05:11.777Z,39.52
2019-04-01T05:06:11.748Z,39.51
2019-04-01T05:07:11.854Z,39.51
2019-04-01T05:08:11.782Z,39.45
2019-04-01T05:09:11.930Z,39.46
2019-04-01T05:10:11.587Z,39.48
2019-04-01T05:11:11.616Z,39.47
2019-04-01T05:12:11.616Z,39.44
2019-04-01T05:13:11.618Z,39.46
2019-04-01T05:14:11.768Z,39.41
2019-04-01T05:15:11.668Z,39.47
2019-04-01T05:16:11.748Z,39.44
2019-04-01T05:17:11.787Z,39.43
2019-04-01T05:18:11.669Z,39.42
2019-04-01T05:19:11.749Z,39.45
2019-04-01T05:20:11.779Z,39.43
2019-04-01T05:21:11.737Z,39.43
2019-04-01T05:22:11.917Z,39.41
2019-04-01T05:23:11.772Z,39.42
2019-04-01T05:24:11.782Z,39.39
2019-04-01T05:25:11.897Z,39.38
2019-04-01T05:26:11.799Z,39.4
2019-04-01T05:27:11.827Z,39.41
2019-04-01T05:28:11.870Z,39.4
2019-04-01T05:29:11.676Z,39.41
2019-04-01T05:30:11.532Z,39.4
2019-04-01T05:31:14.833Z,39.42
2019-04-01T05:32:11.578Z,39.43
2019-04-01T05:33:11.631Z,39.41
2019-04-01T05:34:11.704Z,39.4
2019-04-01T05:35:11.639Z,39.39
2019-04-01T05:36:11.913Z,39.41
2019-04-01T05:37:11.724Z,39.37
2019-04-01T05:38:11.644Z,39.39
2019-04-01T05:39:11.681Z,39.39
2019-04-01T05:40:11.667Z,39.4
2019-04-01T05:41:11.683Z,39.37
2019-04-01T05:42:11.897Z,39.38
2019-04-01T05:43:11.789Z,39.38
2019-04-01T05:44:11.729Z,39.36
2019-04-01T05:45:11.753Z,39.38
2019-04-01T05:46:11.768Z,39.37
2019-04-01T05:47:11.796Z,39.33
2019-04-01T05:48:11.889Z,39.33
2019-04-01T05:49:11.676Z,39.34
2019-04-01T05:50:11.713Z,39.33
2019-04-01T05:51:11.616Z,39.36
2019-04-01T05:52:11.950Z,39.32
2019-04-01T05:53:11.598Z,39.34
2019-04-01T05:54:11.687Z,39.33
2019-04-01T05:55:11.795Z,39.32
2019-04-01T05:56:11.647Z,39.34
2019-04-01T05:57:12.171Z,39.35
2019-04-01T05:58:11.647Z,39.31
2019-04-01T05:59:11.680Z,39.33
2019-04-01T06:00:11.704Z,39.27
2019-04-01T06:01:11.699Z,39.32
2019-04-01T06:02:11.792Z,39.3
2019-04-01T06:03:11.743Z,39.29
2019-04-01T06:04:11.810Z,39.32
2019-04-01T06:05:12.106Z,39.3
2019-04-01T06:06:11.828Z,39.27
2019-04-01T06:07:11.840Z,39.3
2019-04-01T06:08:11.631Z,39.25
2019-04-01T06:09:11.536Z,39.28
2019-04-01T06:10:11.571Z,39.3
2019-04-01T06:11:11.552Z,39.28
2019-04-01T06:12:11.574Z,39.3
2019-04-01T06:13:11.592Z,39.29
2019-04-01T06:14:11.598Z,39.3
2019-04-01T06:15:11.634Z,39.28
2019-04-01T06:16:11.694Z,39.28
2019-04-01T06:17:11.690Z,39.28
2019-04-01T06:18:11.741Z,39.27
2019-04-01T06:19:11.633Z,39.28
2019-04-01T06:20:11.671Z,39.28
2019-04-01T06:21:11.723Z,39.24
2019-04-01T06:22:11.713Z,39.24
2019-04-01T06:23:11.766Z,39.13
2019-04-01T06:24:11.860Z,39.13
2019-04-01T06:25:11.966Z,39.19
2019-04-01T06:26:11.746Z,39.2
2019-04-01T06:27:12.664Z,39.2
2019-04-01T06:28:11.573Z,39.19
2019-04-01T06:29:11.577Z,39.22
2019-04-01T06:30:11.701Z,39.22
2019-04-01T06:31:11.680Z,39.23
2019-04-01T06:32:11.714Z,39.25
2019-04-01T06:33:11.683Z,39.23
2019-04-01T06:34:11.614Z,39.24
2019-04-01T06:35:11.651Z,39.24
2019-04-01T06:36:11.647Z,39.22
2019-04-01T06:37:11.669Z,39.23
2019-04-01T06:38:11.805Z,39.22
2019-04-01T06:39:12.009Z,39.22
2019-04-01T06:40:11.759Z,39.2
2019-04-01T06:41:12.162Z,39.21
2019-04-01T06:42:11.969Z,39.22
2019-04-01T06:43:11.878Z,39.25
2019-04-01T06:44:11.828Z,39.2
2019-04-01T06:45:11.799Z,39.19
2019-04-01T06:46:12.008Z,39.19
2019-04-01T06:47:11.685Z,39.2
2019-04-01T06:48:11.609Z,39.21
2019-04-01T06:49:11.555Z,39.23
2019-04-01T06:50:11.576Z,39.18
2019-04-01T06:51:11.622Z,39.22
2019-04-01T06:52:11.566Z,39.2
2019-04-01T06:53:11.577Z,39.18
2019-04-01T06:54:11.595Z,39.18
2019-04-01T06:55:11.964Z,39.19
2019-04-01T06:56:11.790Z,39.17
2019-04-01T06:57:11.820Z,39.17
2019-04-01T06:58:12.312Z,39.19
2019-04-01T06:59:11.806Z,39.17
2019-04-01T07:00:11.815Z,39.19
2019-04-01T07:01:11.690Z,39.19
2019-04-01T07:02:11.710Z,39.19
2019-04-01T07:03:11.974Z,39.17
2019-04-01T07:04:11.833Z,39.19
2019-04-01T07:05:13.037Z,39.17
2019-04-01T07:06:11.531Z,39.16
2019-04-01T07:07:19.542Z,39.18
2019-04-01T07:08:11.664Z,39.14
2019-04-01T07:09:11.591Z,39.13
2019-04-01T07:10:11.704Z,39.16
2019-04-01T07:11:11.614Z,39.16
2019-04-01T07:12:11.633Z,39.14
2019-04-01T07:13:11.667Z,39.17
2019-04-01T07:14:11.704Z,39.15
2019-04-01T07:15:11.641Z,39.12
2019-04-01T07:16:16.349Z,39.15
2019-04-01T07:17:11.684Z,39.12
2019-04-01T07:18:11.766Z,39.11
2019-04-01T07:19:11.851Z,39.12
2019-04-01T07:20:11.746Z,39.1
2019-04-01T07:21:11.752Z,39.12
2019-04-01T07:22:12.097Z,39.11
2019-04-01T07:23:11.775Z,39.12
2019-04-01T07:24:11.909Z,39.13
2019-04-01T07:25:12.011Z,39.13
2019-04-01T07:26:11.512Z,39.09
2019-04-01T07:27:11.558Z,39.09
2019-04-01T07:28:11.638Z,39.13
2019-04-01T07:29:11.593Z,39.1
2019-04-01T07:30:11.607Z,39.13
2019-04-01T07:31:11.703Z,39.11
2019-04-01T07:32:14.816Z,39.12
2019-04-01T07:33:11.636Z,39.1
2019-04-01T07:34:11.711Z,39.11
2019-04-01T07:35:11.649Z,39.13
2019-04-01T07:36:11.679Z,39.1
2019-04-01T07:37:12.067Z,39.12
2019-04-01T07:38:11.756Z,39.11
2019-04-01T07:39:11.857Z,39.1
2019-04-01T07:40:14.248Z,39.12
2019-04-01T07:41:11.766Z,39.12
2019-04-01T07:42:11.739Z,39.13
2019-04-01T07:43:15.284Z,39.09
2019-04-01T07:44:11.540Z,39.1
2019-04-01T07:45:11.570Z,39.13
2019-04-01T07:46:11.571Z,39.12
2019-04-01T07:47:11.826Z,39.08
2019-04-01T07:48:13.033Z,39.1
2019-04-01T07:49:11.658Z,39.12
2019-04-01T07:50:12.827Z,39.08
2019-04-01T07:51:11.815Z,39.07
2019-04-01T07:52:11.764Z,39.1
2019-04-01T07:53:11.724Z,39.08
2019-04-01T07:54:11.696Z,39.11
2019-04-01T07:55:11.715Z,39.09
2019-04-01T07:56:11.766Z,39.07
2019-04-01T07:57:11.748Z,39.09
2019-04-01T07:58:11.783Z,39.08
2019-04-01T07:59:11.763Z,39.09
2019-04-01T08:00:11.501Z,39.07
2019-04-01T08:01:11.604Z,39.07
2019-04-01T08:02:11.494Z,39.1
2019-04-01T08:03:11.657Z,39.05
2019-04-01T08:04:11.664Z,39.05
2019-04-01T08:05:11.566Z,39.05
2019-04-01T08:06:11.577Z,39.06
2019-04-01T08:07:13.755Z,39.08
2019-04-01T08:08:11.646Z,39.06
2019-04-01T08:09:11.831Z,39.08
2019-04-01T08:10:11.630Z,39.07
2019-04-01T08:11:11.742Z,39.06
2019-04-01T08:12:11.645Z,39.06
2019-04-01T08:13:11.671Z,39.06
2019-04-01T08:14:11.721Z,39.06
2019-04-01T08:15:11.694Z,39.08
2019-04-01T08:16:11.741Z,39.08
2019-04-01T08:17:11.576Z,39.03
2019-04-01T08:18:11.536Z,39.06
2019-04-01T08:19:11.563Z,39.03
2019-04-01T08:20:11.561Z,39.06
2019-04-01T08:21:11.582Z,39.07
2019-04-01T08:22:11.633Z,39.04
2019-04-01T08:23:11.624Z,39.07
2019-04-01T08:24:11.727Z,39.03
2019-04-01T08:25:11.677Z,39.06
2019-04-01T08:26:11.805Z,39.03
2019-04-01T08:27:11.689Z,39.06
2019-04-01T08:28:11.689Z,39.04
2019-04-01T08:29:11.753Z,39.02
2019-04-01T08:30:11.770Z,39.04
2019-04-01T08:31:13.614Z,39.04
2019-04-01T08:32:14.211Z,39.04
2019-04-01T08:33:11.976Z,39.02
2019-04-01T08:34:11.659Z,39.06
2019-04-01T08:35:11.505Z,39.05
2019-04-01T08:36:11.566Z,39.02
2019-04-01T08:37:11.525Z,39.01
2019-04-01T08:38:11.514Z,39.02
2019-04-01T08:39:11.542Z,39.02
2019-04-01T08:40:11.584Z,39.03
2019-04-01T08:41:11.592Z,39.02
2019-04-01T08:42:11.613Z,39.05
2019-04-01T08:43:11.799Z,39.02
2019-04-01T08:44:11.613Z,39.03
2019-04-01T08:45:11.636Z,39.03
2019-04-01T08:46:11.806Z,39.02
2019-04-01T08:47:11.737Z,39.03
2019-04-01T08:48:11.769Z,39
2019-04-01T08:49:11.791Z,39.05
2019-04-01T08:50:11.875Z,38.99
2019-04-01T08:51:11.717Z,39.02
2019-04-01T08:52:11.635Z,39
2019-04-01T08:53:11.650Z,39.01
2019-04-01T08:54:11.680Z,39.03
2019-04-01T08:55:11.558Z,39.02
2019-04-01T08:56:11.592Z,39.02
2019-04-01T08:57:11.615Z,39.01
2019-04-01T08:58:11.683Z,39.03
2019-04-01T08:59:11.614Z,39.01
2019-04-01T09:00:11.626Z,39
2019-04-01T09:01:11.790Z,39
2019-04-01T09:02:18.665Z,39.02
2019-04-01T09:03:11.737Z,38.98
2019-04-01T09:04:11.691Z,39.01
2019-04-01T09:05:11.725Z,39
2019-04-01T09:06:12.137Z,39.02
2019-04-01T09:07:11.723Z,39.01
2019-04-01T09:08:11.506Z,39.01
2019-04-01T09:09:11.476Z,39.01
2019-04-01T09:10:11.556Z,39
2019-04-01T09:11:11.543Z,38.98
2019-04-01T09:12:11.674Z,39.04
2019-04-01T09:13:11.629Z,39
2019-04-01T09:14:11.844Z,39
2019-04-01T09:15:11.545Z,39
2019-04-01T09:16:11.597Z,39.02
2019-04-01T09:17:11.594Z,39.01
2019-04-01T09:18:11.597Z,38.98
2019-04-01T09:19:11.607Z,38.99
2019-04-01T09:20:11.630Z,38.98
2019-04-01T09:21:11.809Z,38.96
2019-04-01T09:22:11.827Z,39.01
2019-04-01T09:23:11.685Z,38.98
2019-04-01T09:24:11.730Z,39.02
2019-04-01T09:25:11.594Z,38.99
2019-04-01T09:26:11.608Z,38.99
2019-04-01T09:27:11.521Z,38.98
2019-04-01T09:28:11.543Z,38.99
2019-04-01T09:29:11.657Z,38.96
2019-04-01T09:30:11.754Z,38.99
2019-04-01T09:31:11.686Z,39.02
2019-04-01T09:32:11.695Z,38.99
2019-04-01T09:33:11.589Z,38.99
2019-04-01T09:34:11.729Z,39.01
2019-04-01T09:35:11.998Z,39
2019-04-01T09:36:13.559Z,38.99
2019-04-01T09:37:11.708Z,39.02
2019-04-01T09:38:11.690Z,39.03
2019-04-01T09:39:11.714Z,38.99
2019-04-01T09:40:11.955Z,38.96
2019-04-01T09:41:13.783Z,38.98
2019-04-01T09:42:11.454Z,39.02
2019-04-01T09:43:14.531Z,39.02
2019-04-01T09:44:11.511Z,39.01
2019-04-01T09:45:11.490Z,38.99
2019-04-01T09:46:11.523Z,39
2019-04-01T09:47:11.506Z,39
2019-04-01T09:48:11.549Z,38.99
2019-04-01T09:49:11.564Z,39.01
2019-04-01T09:50:11.691Z,38.96
2019-04-01T09:51:11.576Z,39
2019-04-01T09:52:11.627Z,38.98
2019-04-01T09:53:11.608Z,38.94
2019-04-01T09:54:11.953Z,38.96
2019-04-01T09:55:11.496Z,38.97
2019-04-01T09:56:12.613Z,38.97
2019-04-01T09:57:18.452Z,38.98
2019-04-01T09:58:11.789Z,38.99
2019-04-01T09:59:11.567Z,38.95
2019-04-01T10:00:11.590Z,38.97
2019-04-01T10:01:11.635Z,39
2019-04-01T10:02:12.126Z,38.96
2019-04-01T10:03:11.606Z,38.99
2019-04-01T10:04:11.572Z,38.95
2019-04-01T10:05:11.619Z,39
2019-04-01T10:06:11.733Z,38.97
2019-04-01T10:07:11.612Z,38.98
2019-04-01T10:08:11.699Z,38.95
2019-04-01T10:09:11.646Z,38.94
2019-04-01T10:10:11.653Z,38.96
2019-04-01T10:11:13.156Z,38.95
2019-04-01T10:12:11.799Z,38.95
2019-04-01T10:13:11.775Z,38.97
2019-04-01T10:14:11.764Z,38.99
2019-04-01T10:15:11.777Z,38.96
2019-04-01T10:16:11.460Z,38.97
2019-04-01T10:17:11.554Z,38.97
2019-04-01T10:18:11.705Z,38.94
2019-04-01T10:19:11.715Z,38.93
2019-04-01T10:20:11.528Z,38.95
2019-04-01T10:21:11.599Z,38.98
2019-04-01T10:22:11.652Z,38.96
2019-04-01T10:23:11.583Z,38.95
2019-04-01T10:24:11.613Z,38.96
2019-04-01T10:25:11.557Z,38.97
2019-04-01T10:26:11.598Z,38.93
2019-04-01T10:27:15.647Z,38.96
2019-04-01T10:28:25.075Z,38.99
2019-04-01T10:29:25.899Z,38.98
2019-04-01T10:30:20.524Z,38.95
2019-04-01T10:31:11.702Z,38.97
2019-04-01T10:32:11.623Z,38.99
2019-04-01T10:33:11.667Z,38.96
2019-04-01T10:34:11.705Z,38.98
2019-04-01T10:35:11.559Z,38.99
2019-04-01T10:36:11.509Z,38.97
2019-04-01T10:37:11.593Z,38.98
2019-04-01T10:38:11.521Z,38.96
2019-04-01T10:39:11.692Z,38.97
2019-04-01T10:40:11.666Z,38.98
2019-04-01T10:41:11.680Z,38.99
2019-04-01T10:42:11.686Z,38.99
2019-04-01T10:43:11.607Z,38.95
2019-04-01T10:44:11.625Z,38.99
2019-04-01T10:45:35.912Z,38.97
2019-04-01T10:46:16.337Z,38.93
2019-04-01T10:47:11.763Z,38.92
2019-04-01T10:48:11.840Z,38.92
2019-04-01T10:49:11.917Z,38.93
2019-04-01T10:50:12.171Z,38.92
2019-04-01T10:51:11.769Z,38.94
2019-04-01T10:52:11.943Z,38.95
2019-04-01T10:53:11.538Z,38.94
2019-04-01T10:54:11.525Z,38.93
2019-04-01T10:55:11.750Z,38.88
2019-04-01T10:56:11.677Z,38.9
2019-04-01T10:57:11.622Z,38.93
2019-04-01T10:58:11.564Z,38.88
2019-04-01T10:59:11.811Z,38.9
2019-04-01T11:00:11.762Z,38.87
2019-04-01T11:01:11.994Z,38.92
2019-04-01T11:02:11.888Z,38.83
2019-04-01T11:03:11.644Z,38.89
2019-04-01T11:04:11.786Z,38.88
2019-04-01T11:05:11.702Z,38.9
2019-04-01T11:06:11.742Z,38.86
2019-04-01T11:07:11.922Z,38.85
2019-04-01T11:08:11.788Z,38.85
2019-04-01T11:09:11.871Z,38.88
2019-04-01T11:10:12.182Z,38.84
2019-04-01T11:11:11.478Z,38.87
2019-04-01T11:12:11.495Z,38.85
2019-04-01T11:13:11.492Z,38.85
2019-04-01T11:14:11.638Z,38.84
2019-04-01T11:15:16.056Z,38.83
2019-04-01T11:16:11.559Z,38.84
2019-04-01T11:17:11.642Z,38.87
2019-04-01T11:18:12.463Z,38.85
2019-04-01T11:19:11.733Z,38.84
2019-04-01T11:20:11.719Z,38.83
2019-04-01T11:21:11.756Z,38.84
2019-04-01T11:22:11.665Z,38.84
2019-04-01T11:23:12.033Z,38.85
2019-04-01T11:24:11.781Z,38.83
2019-04-01T11:25:11.811Z,38.89
2019-04-01T11:26:11.706Z,38.86
2019-04-01T11:27:11.526Z,38.83
2019-04-01T11:28:11.433Z,38.92
2019-04-01T11:29:11.458Z,38.96
2019-04-01T11:30:14.203Z,38.82
2019-04-01T11:31:11.699Z,38.86
2019-04-01T11:32:13.911Z,38.76
2019-04-01T11:33:11.728Z,38.68
2019-04-01T11:34:11.588Z,38.45
2019-04-01T11:35:11.869Z,38.76
2019-04-01T11:36:11.718Z,38.86
2019-04-01T11:37:11.624Z,38.94
2019-04-01T11:38:11.707Z,39.02
2019-04-01T11:39:11.653Z,39.04
2019-04-01T11:40:12.912Z,39.09
2019-04-01T11:41:11.792Z,39.09
2019-04-01T11:42:11.889Z,39.1
2019-04-01T11:43:19.682Z,39.16
2019-04-01T11:44:11.722Z,39.2
2019-04-01T11:45:11.675Z,39.2
2019-04-01T11:46:13.032Z,39.2
2019-04-01T11:47:11.770Z,39.23
2019-04-01T11:48:11.704Z,39.01
2019-04-01T11:49:11.643Z,39.04
2019-04-01T11:50:11.607Z,38.98
2019-04-01T11:51:11.613Z,38.9
2019-04-01T11:52:15.638Z,38.99
2019-04-01T11:53:11.595Z,38.9
2019-04-01T11:54:11.627Z,38.91
2019-04-01T11:55:11.631Z,38.91
2019-04-01T11:56:11.732Z,38.85
2019-04-01T11:57:11.633Z,38.88
2019-04-01T11:58:11.741Z,38.88
2019-04-01T11:59:11.684Z,38.86
2019-04-01T12:00:13.733Z,38.91
2019-04-01T12:01:11.668Z,38.86
2019-04-01T12:02:11.412Z,38.86
2019-04-01T12:03:11.439Z,38.84
2019-04-01T12:04:11.448Z,38.89
2019-04-01T12:05:11.427Z,38.87
2019-04-01T12:06:11.861Z,38.91
2019-04-01T12:07:11.635Z,38.93
2019-04-01T12:08:11.482Z,38.93
2019-04-01T12:09:11.678Z,38.92
2019-04-01T12:10:11.513Z,38.9
2019-04-01T12:11:11.522Z,38.91
2019-04-01T12:12:24.456Z,38.9
2019-04-01T12:13:11.692Z,38.93
2019-04-01T12:14:11.709Z,38.9
2019-04-01T12:15:12.863Z,38.94
2019-04-01T12:16:11.615Z,38.95
2019-04-01T12:17:11.733Z,38.94
2019-04-01T12:18:11.689Z,38.92
2019-04-01T12:19:11.445Z,38.91
2019-04-01T12:20:11.561Z,38.89
2019-04-01T12:21:11.522Z,38.94
2019-04-01T12:22:11.665Z,38.92
2019-04-01T12:23:11.563Z,38.93
2019-04-01T12:24:11.507Z,38.9
2019-04-01T12:25:11.560Z,38.92
2019-04-01T12:26:16.877Z,38.93
2019-04-01T12:27:11.537Z,38.97
2019-04-01T12:28:11.917Z,38.92
2019-04-01T12:29:14.313Z,38.97
2019-04-01T12:30:11.581Z,38.91
2019-04-01T12:31:13.279Z,38.91
2019-04-01T12:32:11.750Z,38.9
2019-04-01T12:33:11.614Z,38.92
2019-04-01T12:34:11.708Z,38.93
2019-04-01T12:35:11.660Z,38.92
2019-04-01T12:36:12.151Z,38.94
2019-04-01T12:37:11.399Z,38.91
2019-04-01T12:38:11.462Z,38.93
2019-04-01T12:39:11.508Z,38.9
2019-04-01T12:40:11.484Z,38.92
2019-04-01T12:41:11.669Z,38.94
2019-04-01T12:42:11.470Z,38.91
2019-04-01T12:43:11.507Z,38.94
2019-04-01T12:44:11.727Z,38.96
2019-04-01T12:45:11.572Z,38.95
2019-04-01T12:46:11.546Z,38.95
2019-04-01T12:47:11.560Z,38.95
2019-04-01T12:48:11.595Z,39.11
2019-04-01T12:49:11.541Z,39.05
2019-04-01T12:50:13.502Z,39.22
2019-04-01T12:51:11.589Z,39.29
2019-04-01T12:52:11.689Z,39.35
2019-04-01T12:53:11.728Z,39.42
2019-04-01T12:54:11.408Z,39.52
2019-04-01T12:55:11.585Z,39.58